Time;durP1;ratioP1;P1;durP2;ratioP2;P2;SDS_P1;SDS_P2;PMS_P1;PMS_P2;Temp;Humidity;BMP_temperature;BMP_pressure;BME280_temperature;BME280_humidity;BME280_pressure;Samples;Min_cycle;Max_cycle;Signal;HPM_P1;HPM_P2
2023/04/30 00:00:59;;;;;;;1.45;1.35;;;23.30;39.70;;;;;;4994786;28;20051;-60
2023/04/30 00:03:26;;;;;;;0.90;0.90;;;23.30;39.70;;;;;;4995593;28;20085;-60
2023/04/30 00:05:53;;;;;;;1.70;1.10;;;23.30;39.70;;;;;;4995708;28;20047;-60
2023/04/30 00:08:21;;;;;;;1.30;1.20;;;23.30;39.70;;;;;;4994742;28;20129;-60
2023/04/30 00:10:48;;;;;;;1.35;1.25;;;23.40;39.80;;;;;;4995409;28;20478;-60
2023/04/30 00:13:15;;;;;;;1.42;1.33;;;23.30;39.70;;;;;;4995589;28;20076;-60
2023/04/30 00:15:43;;;;;;;1.35;0.93;;;23.30;39.70;;;;;;4995753;28;20108;-60
2023/04/30 00:18:10;;;;;;;2.25;1.27;;;23.30;39.70;;;;;;4995423;28;20046;-60
2023/04/30 00:20:37;;;;;;;1.70;1.50;;;23.30;39.70;;;;;;4995228;28;20054;-60
2023/04/30 00:23:04;;;;;;;1.38;1.27;;;23.30;39.80;;;;;;4995133;28;20060;-60
2023/04/30 00:25:31;;;;;;;1.10;0.98;;;23.30;39.70;;;;;;4994917;28;20085;-60
2023/04/30 00:27:58;;;;;;;1.10;1.10;;;23.30;39.80;;;;;;4995457;28;20058;-60
2023/04/30 00:30:25;;;;;;;1.23;1.17;;;23.30;39.70;;;;;;5005455;28;20046;-59
2023/04/30 00:32:52;;;;;;;1.15;1.00;;;23.30;39.70;;;;;;5014643;28;20073;-59
2023/04/30 00:35:20;;;;;;;1.00;0.98;;;23.30;39.70;;;;;;5013383;28;20058;-60
2023/04/30 00:37:47;;;;;;;1.30;1.20;;;23.30;39.70;;;;;;5014688;28;20462;-59
2023/04/30 00:40:14;;;;;;;1.67;1.35;;;23.30;39.70;;;;;;5014832;28;20057;-59
2023/04/30 00:42:41;;;;;;;1.52;1.25;;;23.30;39.70;;;;;;5014401;28;20455;-59
2023/04/30 00:45:09;;;;;;;1.13;1.10;;;23.30;39.70;;;;;;5014479;28;20136;-59
2023/04/30 00:47:36;;;;;;;1.00;1.00;;;23.30;39.80;;;;;;5014272;28;20064;-59
2023/04/30 00:50:04;;;;;;;1.38;1.27;;;23.30;39.70;;;;;;5014560;28;20133;-59
2023/04/30 00:52:31;;;;;;;0.93;0.93;;;23.30;39.70;;;;;;5014217;28;20136;-60
2023/04/30 00:54:58;;;;;;;1.42;1.33;;;23.30;39.70;;;;;;5013128;28;20105;-59
2023/04/30 00:57:26;;;;;;;0.85;0.85;;;23.30;39.80;;;;;;5014033;28;20096;-59
2023/04/30 00:59:54;;;;;;;1.00;1.00;;;23.30;39.80;;;;;;5014283;28;20140;-59
2023/04/30 01:02:22;;;;;;;1.20;1.10;;;23.30;39.80;;;;;;5014095;28;20100;-59
2023/04/30 01:04:50;;;;;;;0.88;0.88;;;23.30;39.80;;;;;;5014027;28;20046;-59
2023/04/30 01:07:18;;;;;;;0.95;0.90;;;23.30;39.80;;;;;;5014058;28;20133;-60
2023/04/30 01:09:45;;;;;;;1.20;1.20;;;23.30;39.80;;;;;;5013880;28;20140;-59
2023/04/30 01:12:43;;;;;;;0.85;0.85;;;23.30;40.40;;;;;;5014209;28;20137;-60
2023/04/30 01:15:33;;;;;;;1.20;0.95;;;23.30;39.80;;;;;;5013594;28;20049;-60
2023/04/30 01:18:20;;;;;;;;;;;23.30;39.90;;;;;;5014464;28;20068;-59
2023/04/30 01:20:59;;;;;;;0.93;0.93;;;23.30;40.00;;;;;;5012754;28;20012;-60
2023/04/30 01:23:51;;;;;;;1.10;1.00;;;23.20;39.90;;;;;;4994095;28;20491;-59
2023/04/30 01:26:45;;;;;;;1.13;1.02;;;23.20;40.00;;;;;;4994052;28;20056;-60
2023/04/30 01:29:15;;;;;;;1.27;1.17;;;23.20;40.60;;;;;;4993958;28;20050;-60
2023/04/30 01:31:42;;;;;;;;;;;23.20;40.60;;;;;;4994156;28;20500;-59
2023/04/30 01:34:10;;;;;;;1.27;1.08;;;23.20;40.00;;;;;;4994270;28;19922;-59
2023/04/30 01:37:15;;;;;;;1.17;1.10;;;23.20;40.00;;;;;;4993898;28;20054;-59
2023/04/30 01:40:15;;;;;;;1.50;1.02;;;23.20;40.10;;;;;;4993832;28;20137;-59
2023/04/30 01:43:08;;;;;;;1.17;1.13;;;23.20;40.10;;;;;;4994044;28;20152;-59
2023/04/30 01:46:00;;;;;;;1.08;1.02;;;23.20;40.00;;;;;;4994080;28;20042;-60
2023/04/30 01:48:45;;;;;;;1.10;1.02;;;23.20;40.10;;;;;;4993434;28;20078;-60
2023/04/30 01:51:24;;;;;;;0.95;0.95;;;23.20;40.00;;;;;;4994169;28;20129;-59
2023/04/30 01:54:01;;;;;;;0.90;0.90;;;23.20;40.00;;;;;;4993704;28;20078;-59
2023/04/30 01:56:37;;;;;;;0.82;0.82;;;23.20;40.00;;;;;;4993859;28;20054;-59
2023/04/30 01:59:04;;;;;;;0.68;0.68;;;23.20;40.00;;;;;;4993671;28;20100;-59
2023/04/30 02:01:32;;;;;;;1.63;0.85;;;23.20;40.00;;;;;;4993892;28;20126;-60
2023/04/30 02:04:00;;;;;;;1.48;1.30;;;23.20;40.00;;;;;;4993301;28;20552;-59
2023/04/30 02:06:28;;;;;;;1.00;1.00;;;23.20;39.90;;;;;;4993854;28;20495;-59
2023/04/30 02:09:01;;;;;;;1.10;1.10;;;23.20;40.00;;;;;;4993447;28;20050;-59
2023/04/30 02:11:29;;;;;;;1.30;1.20;;;23.20;40.00;;;;;;4993553;28;20054;-59
2023/04/30 02:13:56;;;;;;;0.98;0.68;;;23.20;40.00;;;;;;4993403;28;20061;-60
2023/04/30 02:16:23;;;;;;;0.90;0.90;;;23.20;40.00;;;;;;4993483;28;20141;-59
2023/04/30 02:18:51;;;;;;;0.93;0.82;;;23.20;40.00;;;;;;4993801;28;20054;-59
2023/04/30 02:21:18;;;;;;;1.13;1.02;;;23.20;40.00;;;;;;4993417;28;20470;-60
2023/04/30 02:23:45;;;;;;;1.05;0.90;;;23.20;40.00;;;;;;4992570;28;20046;-60
2023/04/30 02:26:12;;;;;;;1.17;0.98;;;23.20;40.00;;;;;;4993512;28;20495;-59
2023/04/30 02:28:39;;;;;;;0.70;0.70;;;23.20;40.00;;;;;;4993247;28;20085;-60
2023/04/30 02:31:06;;;;;;;1.02;1.00;;;23.20;40.00;;;;;;4993812;28;20076;-59
2023/04/30 02:33:34;;;;;;;1.08;0.98;;;23.20;40.00;;;;;;4997653;28;20050;-60
2023/04/30 02:36:01;;;;;;;0.80;0.80;;;23.20;40.00;;;;;;4997280;28;20064;-59
2023/04/30 02:38:28;;;;;;;1.05;0.98;;;23.20;40.00;;;;;;5011940;28;20410;-59
2023/04/30 02:40:55;;;;;;;0.93;0.90;;;23.20;40.10;;;;;;5017083;28;20056;-59
2023/04/30 02:43:22;;;;;;;2.22;0.82;;;23.10;40.00;;;;;;5016536;28;20517;-59
2023/04/30 02:45:49;;;;;;;0.80;0.77;;;23.10;40.10;;;;;;5016695;28;20534;-60
2023/04/30 02:48:16;;;;;;;0.80;0.80;;;23.20;40.10;;;;;;5016910;28;20137;-59
2023/04/30 02:50:43;;;;;;;0.95;0.93;;;23.10;40.00;;;;;;5016832;28;20085;-60
2023/04/30 02:53:11;;;;;;;0.95;0.95;;;23.20;40.10;;;;;;5016527;28;20042;-59
2023/04/30 02:55:38;;;;;;;0.80;0.77;;;23.20;40.10;;;;;;5016586;28;20056;-60
2023/04/30 02:58:05;;;;;;;0.70;0.70;;;23.20;40.10;;;;;;5016453;28;20466;-59
2023/04/30 03:00:32;;;;;;;0.98;0.90;;;23.20;40.10;;;;;;5016339;28;20093;-60
2023/04/30 03:02:59;;;;;;;0.77;0.77;;;23.10;40.10;;;;;;5016169;28;20132;-60
2023/04/30 03:05:27;;;;;;;0.90;0.70;;;23.10;40.20;;;;;;5016305;28;20050;-60
2023/04/30 03:07:54;;;;;;;0.73;0.73;;;23.10;40.20;;;;;;5003436;28;20050;-59
2023/04/30 03:10:23;;;;;;;0.80;0.80;;;23.10;40.20;;;;;;4996547;28;20073;-60
2023/04/30 03:12:50;;;;;;;0.57;0.57;;;23.10;40.20;;;;;;4996310;28;20047;-60
2023/04/30 03:15:17;;;;;;;1.02;0.70;;;23.10;40.30;;;;;;4996618;28;20065;-59
2023/04/30 03:17:44;;;;;;;0.85;0.70;;;23.10;40.30;;;;;;4995412;28;20050;-59
2023/04/30 03:20:13;;;;;;;0.85;0.85;;;23.10;40.30;;;;;;4996427;28;20074;-59
2023/04/30 03:22:40;;;;;;;0.70;0.70;;;23.10;40.30;;;;;;4996366;28;20050;-60
2023/04/30 03:25:08;;;;;;;0.80;0.80;;;23.20;40.40;;;;;;4996373;28;20050;-59
2023/04/30 03:27:35;;;;;;;0.70;0.70;;;23.10;40.30;;;;;;4996268;28;20050;-60
2023/04/30 03:30:03;;;;;;;0.50;0.50;;;23.10;40.30;;;;;;4996309;28;20137;-59
2023/04/30 03:32:30;;;;;;;0.70;0.70;;;23.10;40.30;;;;;;4996436;28;20057;-59
2023/04/30 03:34:57;;;;;;;1.02;0.80;;;23.10;40.30;;;;;;4996200;28;20051;-59
2023/04/30 03:37:24;;;;;;;0.68;0.68;;;23.10;40.30;;;;;;4996413;28;20050;-59
2023/04/30 03:39:51;;;;;;;0.68;0.63;;;23.10;40.30;;;;;;4996369;28;20050;-59
2023/04/30 03:42:19;;;;;;;0.60;0.60;;;23.10;40.20;;;;;;4996041;28;20050;-60
2023/04/30 03:44:46;;;;;;;0.70;0.70;;;23.10;40.20;;;;;;4995271;28;20060;-59
2023/04/30 03:47:13;;;;;;;0.63;0.63;;;23.10;40.20;;;;;;4996284;28;20047;-59
2023/04/30 03:49:40;;;;;;;0.70;0.70;;;23.10;40.20;;;;;;4996110;28;20053;-60
2023/04/30 03:52:07;;;;;;;0.60;0.60;;;23.10;40.20;;;;;;4995899;28;20089;-59
2023/04/30 03:54:35;;;;;;;0.70;0.70;;;23.10;40.10;;;;;;4994822;28;20150;-60
2023/04/30 03:57:06;;;;;;;0.70;0.70;;;23.20;40.20;;;;;;4996142;28;20134;-59
2023/04/30 03:59:33;;;;;;;0.85;0.85;;;23.20;40.20;;;;;;4996105;28;20112;-59
2023/04/30 04:02:01;;;;;;;0.85;0.77;;;23.20;40.20;;;;;;4995563;28;20096;-59
2023/04/30 04:04:29;;;;;;;1.02;0.85;;;23.10;40.20;;;;;;4995827;28;20133;-59
2023/04/30 04:06:56;;;;;;;0.45;0.45;;;23.10;40.10;;;;;;4995631;28;20061;-59
2023/04/30 04:09:23;;;;;;;0.55;0.55;;;23.10;40.20;;;;;;4995686;28;20050;-59
2023/04/30 04:11:50;;;;;;;0.60;0.60;;;23.10;40.20;;;;;;4995479;28;20060;-59
2023/04/30 04:14:17;;;;;;;0.55;0.55;;;23.20;40.20;;;;;;5009821;28;20056;-59
2023/04/30 04:16:45;;;;;;;0.52;0.52;;;23.10;40.20;;;;;;5014789;28;20061;-59
2023/04/30 04:19:12;;;;;;;0.80;0.77;;;23.10;40.20;;;;;;5014866;28;20042;-59
2023/04/30 04:21:40;;;;;;;0.57;0.57;;;23.20;40.20;;;;;;5015266;28;20410;-60
2023/04/30 04:24:07;;;;;;;0.65;0.60;;;23.10;40.20;;;;;;5013234;28;20042;-59
2023/04/30 04:26:36;;;;;;;0.75;0.75;;;23.20;40.30;;;;;;5014634;28;20050;-59
2023/04/30 04:29:03;;;;;;;0.60;0.60;;;23.20;40.20;;;;;;5015076;28;20141;-59
2023/04/30 04:31:31;;;;;;;0.85;0.82;;;23.20;40.30;;;;;;5014406;28;20050;-59
2023/04/30 04:33:59;;;;;;;0.98;0.98;;;23.20;40.30;;;;;;5014564;28;20054;-59
2023/04/30 04:36:27;;;;;;;1.25;1.23;;;23.20;40.40;;;;;;5014573;28;20046;-59
2023/04/30 04:38:56;;;;;;;1.35;1.30;;;23.20;40.50;;;;;;5014396;28;20050;-60
2023/04/30 04:41:24;;;;;;;1.40;1.30;;;23.20;40.60;;;;;;5014588;28;20046;-59
2023/04/30 04:43:51;;;;;;;1.10;1.10;;;23.20;40.60;;;;;;5014497;28;20045;-60
2023/04/30 04:46:19;;;;;;;1.92;1.58;;;23.20;40.60;;;;;;5014428;28;20053;-59
2023/04/30 04:48:46;;;;;;;1.77;1.67;;;23.20;40.60;;;;;;5014353;28;20057;-60
2023/04/30 04:51:14;;;;;;;1.40;1.30;;;23.20;40.60;;;;;;5012883;28;20136;-59
2023/04/30 04:53:41;;;;;;;1.42;1.33;;;23.30;40.70;;;;;;5014142;28;20054;-59
2023/04/30 04:56:08;;;;;;;2.30;1.85;;;23.30;40.70;;;;;;5013585;28;20054;-60
2023/04/30 04:58:35;;;;;;;1.25;1.23;;;23.30;40.70;;;;;;5014218;28;20054;-59
2023/04/30 05:01:04;;;;;;;1.33;1.23;;;23.30;40.60;;;;;;5014216;28;20414;-60
2023/04/30 05:03:32;;;;;;;1.90;1.40;;;23.30;40.50;;;;;;5013347;28;20060;-60
2023/04/30 05:05:59;;;;;;;1.98;1.30;;;23.30;40.50;;;;;;5014440;28;20104;-59
2023/04/30 05:08:26;;;;;;;1.20;1.20;;;23.30;40.60;;;;;;5013937;28;20375;-59
2023/04/30 05:10:54;;;;;;;1.23;1.20;;;23.30;40.60;;;;;;5014024;28;20046;-60
2023/04/30 05:13:21;;;;;;;1.00;1.00;;;23.30;40.60;;;;;;5013663;28;20048;-59
2023/04/30 05:15:52;;;;;;;1.30;1.20;;;23.30;40.60;;;;;;5014369;28;20156;-60
2023/04/30 05:18:20;;;;;;;0.93;0.90;;;23.40;40.60;;;;;;5013747;28;20491;-59
2023/04/30 05:20:47;;;;;;;1.00;1.00;;;23.40;40.60;;;;;;5013995;28;20050;-59
2023/04/30 05:23:14;;;;;;;2.70;1.35;;;23.40;40.50;;;;;;5013209;28;20074;-59
2023/04/30 05:25:42;;;;;;;1.65;1.10;;;23.40;40.40;;;;;;5009542;28;20130;-59
2023/04/30 05:28:09;;;;;;;1.38;1.25;;;23.40;40.40;;;;;;5011932;28;20056;-59
2023/04/30 05:30:36;;;;;;;1.05;1.05;;;23.50;40.40;;;;;;5013247;28;20047;-59
2023/04/30 05:33:03;;;;;;;0.95;0.95;;;23.50;40.30;;;;;;5006619;28;20060;-59
2023/04/30 05:35:30;;;;;;;1.48;1.38;;;23.50;40.20;;;;;;5012169;28;20052;-59
2023/04/30 05:37:58;;;;;;;1.10;1.10;;;23.60;40.20;;;;;;5013354;28;20129;-60
2023/04/30 05:40:28;;;;;;;0.80;0.80;;;23.60;40.10;;;;;;5010029;28;20137;-59
2023/04/30 05:42:55;;;;;;;0.90;0.90;;;23.60;40.10;;;;;;5013879;28;20045;-60
2023/04/30 05:45:23;;;;;;;1.02;1.02;;;23.60;40.00;;;;;;5013465;28;20093;-63
2023/04/30 05:47:50;;;;;;;1.48;1.30;;;23.60;40.00;;;;;;5013412;28;20478;-63
2023/04/30 05:50:17;;;;;;;1.23;1.13;;;23.70;40.00;;;;;;5013692;28;20084;-65
2023/04/30 05:52:44;;;;;;;1.60;1.17;;;23.70;40.00;;;;;;5013195;28;20479;-60
2023/04/30 05:55:11;;;;;;;1.15;1.15;;;23.70;40.00;;;;;;5013785;28;20125;-60
2023/04/30 05:57:38;;;;;;;1.13;1.13;;;23.70;39.90;;;;;;5012958;28;20060;-60
2023/04/30 06:00:06;;;;;;;1.40;1.00;;;23.70;39.90;;;;;;5013181;28;20050;-66
2023/04/30 06:02:33;;;;;;;1.27;1.17;;;23.70;39.90;;;;;;5009662;28;20125;-62
2023/04/30 06:05:02;;;;;;;1.25;1.15;;;23.80;40.00;;;;;;5013361;28;20085;-60
2023/04/30 06:07:29;;;;;;;0.90;0.90;;;23.80;39.90;;;;;;5012894;28;20060;-68
2023/04/30 06:09:56;;;;;;;1.08;1.08;;;23.90;39.90;;;;;;5012279;28;20129;-63
2023/04/30 06:12:24;;;;;;;2.17;1.42;;;23.90;39.60;;;;;;5012792;28;20085;-62
2023/04/30 06:14:52;;;;;;;1.45;1.35;;;23.90;39.60;;;;;;5012879;28;20077;-63
2023/04/30 06:17:19;;;;;;;1.55;1.45;;;23.90;39.70;;;;;;5011640;28;20057;-63
2023/04/30 06:19:46;;;;;;;1.20;1.20;;;24.00;39.70;;;;;;5012797;28;20050;-60
2023/04/30 06:22:13;;;;;;;2.03;1.10;;;23.90;39.60;;;;;;5012707;28;20084;-65
2023/04/30 06:24:40;;;;;;;1.08;1.08;;;24.00;39.50;;;;;;5013064;28;20046;-60
2023/04/30 06:27:07;;;;;;;1.13;1.13;;;24.00;39.40;;;;;;5012135;28;20055;-68
2023/04/30 06:29:34;;;;;;;1.05;1.05;;;24.00;39.30;;;;;;5012638;28;20056;-62
2023/04/30 06:32:02;;;;;;;1.17;1.17;;;24.10;39.30;;;;;;5012504;28;20053;-60
2023/04/30 06:34:29;;;;;;;1.27;1.17;;;24.00;39.30;;;;;;5012734;28;20042;-59
2023/04/30 06:36:57;;;;;;;0.85;0.85;;;24.00;39.30;;;;;;5011661;28;20046;-60
2023/04/30 06:39:24;;;;;;;1.05;1.05;;;24.10;39.30;;;;;;5013032;28;20056;-60
2023/04/30 06:41:51;;;;;;;1.10;1.00;;;24.10;39.20;;;;;;5012869;28;20052;-60
2023/04/30 06:44:18;;;;;;;1.02;1.02;;;24.10;39.10;;;;;;5012889;28;20065;-60
2023/04/30 06:46:45;;;;;;;1.27;1.17;;;24.10;39.10;;;;;;4995015;28;20082;-60
2023/04/30 06:49:12;;;;;;;1.02;0.95;;;24.20;39.10;;;;;;5010111;28;20050;-59
2023/04/30 06:51:41;;;;;;;1.10;1.10;;;24.20;39.00;;;;;;5027153;28;20054;-60
2023/04/30 06:54:09;;;;;;;0.90;0.90;;;24.20;39.10;;;;;;5029485;28;20045;-60
2023/04/30 06:56:37;;;;;;;1.05;1.02;;;24.10;39.00;;;;;;5027245;28;20057;-61
2023/04/30 06:59:04;;;;;;;1.13;1.02;;;24.20;39.00;;;;;;5032382;28;20049;-62
2023/04/30 07:01:31;;;;;;;1.20;0.98;;;24.10;39.00;;;;;;5027710;28;20401;-60
2023/04/30 07:04:00;;;;;;;1.33;1.27;;;24.20;39.00;;;;;;5028288;28;20080;-59
2023/04/30 07:06:27;;;;;;;1.88;1.48;;;24.20;38.90;;;;;;5016422;28;20145;-60
2023/04/30 07:08:54;;;;;;;1.33;1.23;;;24.20;38.90;;;;;;5011392;28;20073;-60
2023/04/30 07:11:22;;;;;;;1.25;1.17;;;24.20;38.80;;;;;;5012345;28;20058;-60
2023/04/30 07:13:49;;;;;;;1.00;1.00;;;24.20;38.80;;;;;;5012574;28;20056;-60
2023/04/30 07:16:16;;;;;;;1.20;1.20;;;24.30;38.80;;;;;;5012490;28;20141;-59
2023/04/30 07:18:43;;;;;;;1.67;1.58;;;24.20;38.80;;;;;;5013431;28;20060;-60
2023/04/30 07:21:10;;;;;;;1.45;1.10;;;24.30;38.80;;;;;;5014625;28;20046;-60
2023/04/30 07:23:37;;;;;;;1.30;1.20;;;24.30;38.70;;;;;;5016074;28;20077;-60
2023/04/30 07:26:05;;;;;;;2.53;1.05;;;24.30;38.70;;;;;;5016203;28;20409;-59
2023/04/30 07:28:32;;;;;;;1.60;1.15;;;24.30;38.60;;;;;;5015648;28;20100;-60
2023/04/30 07:30:59;;;;;;;1.25;1.25;;;24.30;38.60;;;;;;5015805;28;20045;-60
2023/04/30 07:33:27;;;;;;;1.25;1.15;;;24.30;38.50;;;;;;5015606;28;20490;-60
2023/04/30 07:35:55;;;;;;;1.30;1.20;;;24.40;38.50;;;;;;5015825;28;20081;-60
2023/04/30 07:38:22;;;;;;;2.22;1.50;;;24.40;38.40;;;;;;5015344;28;20046;-59
2023/04/30 07:40:49;;;;;;;1.08;1.08;;;24.40;38.30;;;;;;5015658;28;20050;-60
2023/04/30 07:43:17;;;;;;;1.60;1.50;;;24.50;38.30;;;;;;5015674;28;20058;-60
2023/04/30 07:45:44;;;;;;;1.23;1.13;;;24.50;38.20;;;;;;5014502;28;20077;-59
2023/04/30 07:48:11;;;;;;;2.80;1.40;;;24.50;38.00;;;;;;5015407;28;20049;-60
2023/04/30 07:50:38;;;;;;;2.95;1.52;;;24.60;38.00;;;;;;5015386;28;20138;-60
2023/04/30 07:53:08;;;;;;;1.23;1.15;;;24.70;38.00;;;;;;5015042;28;20077;-59
2023/04/30 07:55:35;;;;;;;6.57;1.50;;;24.70;37.90;;;;;;5014485;28;20042;-59
2023/04/30 07:58:03;;;;;;;1.23;1.15;;;24.70;37.80;;;;;;5015652;28;20111;-59
2023/04/30 08:00:30;;;;;;;1.70;1.60;;;24.70;37.70;;;;;;5015486;28;20054;-60
2023/04/30 08:02:59;;;;;;;1.48;1.38;;;24.80;37.70;;;;;;5015115;28;20056;-59
2023/04/30 08:05:26;;;;;;;1.50;1.40;;;24.80;37.80;;;;;;5015260;28;20097;-60
2023/04/30 08:07:53;;;;;;;1.52;1.40;;;24.80;37.80;;;;;;5015229;28;20066;-59
2023/04/30 08:10:21;;;;;;;1.50;1.40;;;24.80;37.70;;;;;;5014561;28;20046;-60
2023/04/30 08:12:48;;;;;;;1.63;1.50;;;24.80;37.80;;;;;;5014871;28;20510;-59
2023/04/30 08:15:15;;;;;;;1.67;1.58;;;24.80;37.70;;;;;;5014492;28;20054;-59
2023/04/30 08:17:42;;;;;;;1.73;1.63;;;24.70;37.60;;;;;;5015726;28;20046;-60
2023/04/30 08:20:10;;;;;;;2.03;1.92;;;24.80;37.70;;;;;;5016906;28;20042;-59
2023/04/30 08:22:37;;;;;;;1.23;1.20;;;24.80;37.70;;;;;;5006631;28;20050;-60
2023/04/30 08:25:04;;;;;;;1.20;1.13;;;24.80;37.70;;;;;;5018251;28;20132;-60
2023/04/30 08:27:32;;;;;;;1.58;1.48;;;24.80;37.60;;;;;;5033398;28;20054;-59
2023/04/30 08:29:59;;;;;;;1.63;1.52;;;24.80;37.60;;;;;;5034585;28;20056;-59
2023/04/30 08:32:27;;;;;;;1.63;1.55;;;24.80;37.50;;;;;;5033987;28;20096;-60
2023/04/30 08:34:54;;;;;;;1.70;1.60;;;24.90;37.50;;;;;;5034779;28;20045;-59
2023/04/30 08:37:22;;;;;;;1.75;1.65;;;24.90;37.50;;;;;;5033178;28;20049;-60
2023/04/30 08:39:49;;;;;;;1.50;1.40;;;24.90;37.40;;;;;;5023881;28;20056;-59
2023/04/30 08:42:18;;;;;;;1.60;1.50;;;24.90;37.30;;;;;;5012648;28;20050;-59
2023/04/30 08:44:46;;;;;;;1.30;1.30;;;24.90;37.30;;;;;;4995194;28;20057;-59
2023/04/30 08:47:13;;;;;;;2.90;1.30;;;25.00;37.30;;;;;;4995235;28;20073;-60
2023/04/30 08:49:40;;;;;;;1.23;1.20;;;25.00;37.20;;;;;;4994688;28;20085;-59
2023/04/30 08:52:08;;;;;;;1.67;1.58;;;25.10;37.20;;;;;;5008092;28;20057;-59
2023/04/30 08:54:36;;;;;;;1.73;1.63;;;25.10;37.20;;;;;;5014352;28;20050;-60
2023/04/30 08:57:04;;;;;;;1.40;1.40;;;25.10;37.10;;;;;;5014606;28;20054;-59
2023/04/30 08:59:31;;;;;;;1.45;1.33;;;25.10;37.10;;;;;;5014107;28;20052;-60
2023/04/30 09:02:01;;;;;;;1.83;1.73;;;25.10;37.10;;;;;;5013445;28;20125;-60
2023/04/30 09:04:29;;;;;;;;;;;25.10;37.00;;;;;;5014463;28;20354;-59
2023/04/30 09:06:59;;;;;;;1.40;1.30;;;25.20;37.00;;;;;;5013298;28;19944;-59
2023/04/30 09:09:37;;;;;;;1.60;1.50;;;25.20;36.90;;;;;;5013889;28;20096;-60
2023/04/30 09:12:13;;;;;;;1.38;1.27;;;25.30;36.90;;;;;;5014188;28;20137;-60
2023/04/30 09:15:03;;;;;;;2.83;1.77;;;25.30;36.90;;;;;;5013842;28;20544;-60
2023/04/30 09:17:31;;;;;;;1.40;1.35;;;25.40;36.90;;;;;;5014083;28;20060;-60
2023/04/30 09:20:10;;;;;;;1.27;1.25;;;25.40;36.80;;;;;;5013823;28;20082;-59
2023/04/30 09:22:39;;;;;;;1.40;1.30;;;25.40;36.70;;;;;;5012851;28;20050;-60
2023/04/30 09:25:07;;;;;;;1.60;1.50;;;25.40;36.70;;;;;;5014180;28;20049;-60
2023/04/30 09:27:35;;;;;;;1.85;1.30;;;25.50;36.70;;;;;;5013644;28;20085;-60
2023/04/30 09:30:02;;;;;;;1.10;1.10;;;25.50;36.60;;;;;;5013402;28;20084;-60
2023/04/30 09:32:29;;;;;;;1.45;1.38;;;25.50;36.50;;;;;;5013628;28;20064;-60
2023/04/30 09:34:56;;;;;;;1.55;1.35;;;25.50;36.50;;;;;;5013557;28;20050;-59
2023/04/30 09:37:37;;;;;;;1.30;1.20;;;25.50;36.50;;;;;;5013662;28;20524;-60
2023/04/30 09:40:05;;;;;;;2.22;1.90;;;25.50;36.40;;;;;;5013507;28;20052;-60
2023/04/30 09:42:33;;;;;;;1.55;1.45;;;25.50;36.40;;;;;;5013170;28;20054;-60
2023/04/30 09:45:00;;;;;;;1.42;1.33;;;25.50;36.40;;;;;;5013420;28;20056;-60
2023/04/30 09:47:30;;;;;;;1.80;1.70;;;25.50;36.40;;;;;;5013554;28;20132;-60
2023/04/30 09:49:59;;;;;;;1.48;1.38;;;25.60;36.40;;;;;;5013271;28;20049;-59
2023/04/30 09:52:26;;;;;;;1.60;1.50;;;25.60;36.40;;;;;;5013179;28;20050;-59
2023/04/30 09:54:53;;;;;;;1.42;1.40;;;25.60;36.40;;;;;;5013492;28;20042;-59
2023/04/30 09:57:23;;;;;;;1.55;1.45;;;25.60;36.40;;;;;;5013228;28;20133;-60
2023/04/30 09:59:52;;;;;;;1.60;1.50;;;25.60;36.30;;;;;;5013087;28;20133;-59
2023/04/30 10:02:22;;;;;;;1.55;1.45;;;25.60;36.30;;;;;;5013342;28;20148;-59
2023/04/30 10:05:00;;;;;;;1.30;1.30;;;25.60;36.30;;;;;;5013291;28;20054;-59
2023/04/30 10:07:34;;;;;;;1.33;1.25;;;25.60;36.30;;;;;;5012943;28;20085;-59
2023/04/30 10:10:08;;;;;;;1.48;1.38;;;25.60;36.30;;;;;;5011936;28;20524;-59
2023/04/30 10:12:51;;;;;;;1.63;1.52;;;25.60;36.30;;;;;;5013323;28;20053;-61
2023/04/30 10:15:24;;;;;;;1.55;1.45;;;25.60;36.30;;;;;;5012822;28;20073;-60
2023/04/30 10:18:01;;;;;;;1.23;1.13;;;25.60;36.30;;;;;;5012833;28;20302;-60
2023/04/30 10:20:33;;;;;;;1.50;1.40;;;25.60;36.20;;;;;;5013208;28;20060;-60
2023/04/30 10:23:00;;;;;;;1.50;1.40;;;25.60;36.20;;;;;;5012515;28;20506;-60
2023/04/30 10:25:28;;;;;;;1.40;1.30;;;25.70;36.20;;;;;;5012813;28;20425;-60
2023/04/30 10:27:56;;;;;;;1.63;1.55;;;25.70;36.70;;;;;;5012935;28;20387;-60
2023/04/30 10:30:24;;;;;;;1.63;1.02;;;25.70;36.10;;;;;;5012919;28;20053;-60
2023/04/30 10:33:16;;;;;;;1.48;1.38;;;25.70;36.00;;;;;;5013001;28;20049;-60
2023/04/30 10:36:03;;;;;;;1.20;1.20;;;25.70;35.90;;;;;;5013205;28;20129;-60
2023/04/30 10:38:31;;;;;;;1.50;1.40;;;25.70;35.90;;;;;;5011914;28;20144;-60
2023/04/30 10:41:03;;;;;;;0.90;0.90;;;25.70;35.80;;;;;;5012830;28;20413;-60
2023/04/30 10:43:30;;;;;;;1.35;1.35;;;25.70;35.80;;;;;;5012520;28;20104;-59
2023/04/30 10:45:58;;;;;;;1.13;1.10;;;25.70;35.80;;;;;;5012736;28;20403;-59
2023/04/30 10:48:27;;;;;;;1.42;1.33;;;25.70;35.80;;;;;;5012940;28;20065;-59
2023/04/30 10:50:58;;;;;;;1.50;1.25;;;25.70;35.80;;;;;;5012661;28;20052;-60
2023/04/30 10:53:30;;;;;;;1.23;1.23;;;25.70;35.70;;;;;;5014645;28;20053;-59
2023/04/30 10:56:05;;;;;;;1.45;1.35;;;25.70;35.70;;;;;;5016094;28;20050;-59
2023/04/30 10:58:38;;;;;;;1.42;1.33;;;25.70;35.70;;;;;;5015763;28;20132;-59
2023/04/30 11:01:13;;;;;;;1.38;1.27;;;25.70;35.60;;;;;;5015870;28;20053;-60
2023/04/30 11:03:42;;;;;;;1.40;1.30;;;25.70;35.60;;;;;;5016069;28;20438;-60
2023/04/30 11:06:14;;;;;;;1.20;1.20;;;25.70;35.60;;;;;;5015156;28;20056;-60
2023/04/30 11:08:45;;;;;;;1.38;1.30;;;25.60;35.50;;;;;;5024895;28;20073;-60
2023/04/30 11:11:22;;;;;;;1.98;1.25;;;25.60;35.50;;;;;;5025985;28;20061;-60
2023/04/30 11:14:00;;;;;;;1.83;1.20;;;25.60;35.40;;;;;;5008401;28;20043;-60
2023/04/30 11:16:33;;;;;;;1.30;1.27;;;25.60;35.40;;;;;;5016049;28;20133;-60
2023/04/30 11:19:12;;;;;;;1.30;1.20;;;25.60;35.50;;;;;;5016142;28;20054;-60
2023/04/30 11:22:00;;;;;;;1.10;1.10;;;25.60;35.40;;;;;;5016384;28;20084;-60
2023/04/30 11:24:51;;;;;;;1.05;1.05;;;25.70;35.50;;;;;;5015281;28;20123;-60
2023/04/30 11:27:21;;;;;;;1.27;1.27;;;25.70;35.40;;;;;;5015768;28;20068;-60
2023/04/30 11:29:50;;;;;;;0.95;0.95;;;25.70;35.30;;;;;;5015837;28;20138;-60
2023/04/30 11:32:19;;;;;;;1.52;1.42;;;25.70;35.20;;;;;;5015910;28;20054;-60
2023/04/30 11:34:48;;;;;;;1.25;1.10;;;25.70;35.20;;;;;;5015528;28;20050;-60
2023/04/30 11:37:20;;;;;;;1.30;1.27;;;25.70;35.10;;;;;;5015877;28;20140;-60
2023/04/30 11:39:47;;;;;;;1.23;1.13;;;25.80;35.10;;;;;;5015507;28;20050;-60
2023/04/30 11:42:18;;;;;;;1.15;1.15;;;25.70;35.00;;;;;;5016088;28;20054;-60
2023/04/30 11:44:45;;;;;;;1.25;1.25;;;25.70;35.00;;;;;;5015508;28;20042;-60
2023/04/30 11:47:14;;;;;;;1.10;1.10;;;25.80;35.10;;;;;;5014803;28;20137;-60
2023/04/30 11:49:42;;;;;;;1.52;1.42;;;25.80;35.10;;;;;;5015560;28;20573;-60
2023/04/30 11:52:12;;;;;;;1.20;1.13;;;25.70;35.00;;;;;;5014223;28;20082;-60
2023/04/30 11:54:39;;;;;;;1.27;1.27;;;25.70;35.00;;;;;;5015198;28;20056;-60
2023/04/30 11:57:06;;;;;;;0.95;0.95;;;25.70;35.00;;;;;;5015708;28;20131;-60
2023/04/30 11:59:41;;;;;;;1.30;1.20;;;25.70;35.00;;;;;;5014447;28;20053;-60
2023/04/30 12:02:08;;;;;;;1.30;1.30;;;25.70;35.00;;;;;;5014906;28;20112;-60
2023/04/30 12:04:38;;;;;;;1.00;1.00;;;25.70;34.90;;;;;;5014763;28;20041;-60
2023/04/30 12:07:08;;;;;;;1.33;1.30;;;25.80;34.90;;;;;;5014588;28;20054;-60
2023/04/30 12:09:52;;;;;;;2.00;1.50;;;25.80;34.80;;;;;;5015093;28;20486;-60
2023/04/30 12:12:28;;;;;;;1.45;1.35;;;25.80;34.80;;;;;;5015009;28;20458;-60
2023/04/30 12:14:56;;;;;;;1.00;1.00;;;25.80;34.70;;;;;;5015023;28;20054;-61
2023/04/30 12:17:36;;;;;;;1.20;1.20;;;25.80;35.30;;;;;;5015122;28;20054;-60
2023/04/30 12:20:05;;;;;;;1.17;1.17;;;25.90;34.70;;;;;;4988703;28;20489;-61
2023/04/30 12:22:32;;;;;;;2.20;1.05;;;25.90;34.70;;;;;;5006524;28;20107;-60
2023/04/30 12:25:01;;;;;;;1.13;1.13;;;25.90;34.60;;;;;;5012970;28;20042;-59
2023/04/30 12:27:28;;;;;;;1.10;1.10;;;25.90;34.60;;;;;;5010608;28;20129;-58
2023/04/30 12:29:56;;;;;;;1.10;1.10;;;25.80;34.50;;;;;;5002774;28;20045;-58
2023/04/30 12:32:23;;;;;;;1.42;1.33;;;25.80;34.60;;;;;;5016033;28;20506;-58
2023/04/30 12:34:50;;;;;;;1.05;1.05;;;25.80;34.50;;;;;;5019467;28;20077;-58
2023/04/30 12:37:17;;;;;;;1.77;1.63;;;25.80;34.50;;;;;;5014671;28;20075;-58
2023/04/30 12:39:46;;;;;;;1.20;1.20;;;25.90;34.50;;;;;;5014895;28;20501;-58
2023/04/30 12:42:18;;;;;;;1.42;1.20;;;25.80;34.50;;;;;;5014622;28;20482;-58
2023/04/30 12:44:46;;;;;;;1.27;1.17;;;25.90;34.50;;;;;;5014283;28;20424;-58
2023/04/30 12:47:15;;;;;;;1.40;1.30;;;25.80;34.40;;;;;;5014938;28;20426;-58
2023/04/30 12:49:45;;;;;;;1.38;1.27;;;25.80;34.40;;;;;;5014352;28;20133;-58
2023/04/30 12:52:14;;;;;;;1.20;1.20;;;25.90;34.40;;;;;;5014052;28;20092;-58
2023/04/30 12:54:42;;;;;;;1.30;1.20;;;25.90;34.40;;;;;;5013982;28;20128;-58
2023/04/30 12:57:11;;;;;;;1.00;1.00;;;25.90;34.40;;;;;;5014361;28;20053;-58
2023/04/30 12:59:59;;;;;;;1.00;1.00;;;25.90;34.40;;;;;;5014161;28;20088;-58